sensor_id;sensor_type;location;lat;lon;timestamp;P1;durP1;ratioP1;P2;durP2;ratioP2
13605;SDS011;6874;52.084;5.090;2023-02-11T00:00:33;18.67;;;18.07;;
13605;SDS011;6874;52.084;5.090;2023-02-11T00:03:02;16.90;;;16.40;;
13605;SDS011;6874;52.084;5.090;2023-02-11T00:05:27;17.50;;;16.97;;
13605;SDS011;6874;52.084;5.090;2023-02-11T00:07:53;17.30;;;16.77;;
13605;SDS011;6874;52.084;5.090;2023-02-11T00:10:19;16.07;;;15.57;;
13605;SDS011;6874;52.084;5.090;2023-02-11T00:12:44;14.60;;;14.17;;
13605;SDS011;6874;52.084;5.090;2023-02-11T00:15:10;15.63;;;15.13;;
13605;SDS011;6874;52.084;5.090;2023-02-11T00:17:36;15.77;;;15.27;;
13605;SDS011;6874;52.084;5.090;2023-02-11T00:20:01;16.80;;;16.30;;
13605;SDS011;6874;52.084;5.090;2023-02-11T00:22:27;16.43;;;15.93;;
13605;SDS011;6874;52.084;5.090;2023-02-11T00:24:53;17.43;;;16.90;;
13605;SDS011;6874;52.084;5.090;2023-02-11T00:27:18;15.10;;;14.63;;
13605;SDS011;6874;52.084;5.090;2023-02-11T00:29:44;16.33;;;15.80;;
13605;SDS011;6874;52.084;5.090;2023-02-11T00:32:10;16.40;;;15.90;;
13605;SDS011;6874;52.084;5.090;2023-02-11T00:34:36;15.43;;;14.93;;
13605;SDS011;6874;52.084;5.090;2023-02-11T00:37:02;16.23;;;15.73;;
13605;SDS011;6874;52.084;5.090;2023-02-11T00:39:28;16.37;;;15.87;;
13605;SDS011;6874;52.084;5.090;2023-02-11T00:41:54;17.10;;;16.57;;
13605;SDS011;6874;52.084;5.090;2023-02-11T00:44:20;17.37;;;16.83;;
13605;SDS011;6874;52.084;5.090;2023-02-11T00:46:45;16.20;;;15.70;;
13605;SDS011;6874;52.084;5.090;2023-02-11T00:49:11;15.93;;;15.43;;
13605;SDS011;6874;52.084;5.090;2023-02-11T00:51:37;17.00;;;16.47;;
13605;SDS011;6874;52.084;5.090;2023-02-11T00:54:03;18.23;;;17.67;;
13605;SDS011;6874;52.084;5.090;2023-02-11T00:56:29;18.60;;;18.03;;
13605;SDS011;6874;52.084;5.090;2023-02-11T00:58:55;18.53;;;17.93;;
13605;SDS011;6874;52.084;5.090;2023-02-11T01:01:21;19.33;;;18.73;;
13605;SDS011;6874;52.084;5.090;2023-02-11T01:03:47;17.97;;;17.43;;
13605;SDS011;6874;52.084;5.090;2023-02-11T01:06:12;18.57;;;17.97;;
13605;SDS011;6874;52.084;5.090;2023-02-11T01:08:38;17.10;;;16.57;;
13605;SDS011;6874;52.084;5.090;2023-02-11T01:11:06;19.87;;;19.27;;
13605;SDS011;6874;52.084;5.090;2023-02-11T01:13:35;15.30;;;14.83;;
13605;SDS011;6874;52.084;5.090;2023-02-11T01:16:01;19.07;;;18.47;;
13605;SDS011;6874;52.084;5.090;2023-02-11T01:18:28;19.03;;;18.43;;
13605;SDS011;6874;52.084;5.090;2023-02-11T01:20:54;17.47;;;16.93;;
13605;SDS011;6874;52.084;5.090;2023-02-11T01:23:20;18.43;;;17.83;;
13605;SDS011;6874;52.084;5.090;2023-02-11T01:25:46;18.30;;;17.73;;
13605;SDS011;6874;52.084;5.090;2023-02-11T01:28:20;18.33;;;17.77;;
13605;SDS011;6874;52.084;5.090;2023-02-11T01:30:47;14.17;;;13.73;;
13605;SDS011;6874;52.084;5.090;2023-02-11T01:33:13;16.87;;;16.37;;
13605;SDS011;6874;52.084;5.090;2023-02-11T01:35:39;17.23;;;16.70;;
13605;SDS011;6874;52.084;5.090;2023-02-11T01:38:05;15.00;;;14.50;;
13605;SDS011;6874;52.084;5.090;2023-02-11T01:40:31;17.43;;;16.90;;
13605;SDS011;6874;52.084;5.090;2023-02-11T01:42:57;17.07;;;16.53;;
13605;SDS011;6874;52.084;5.090;2023-02-11T01:48:20;11.67;;;11.30;;
13605;SDS011;6874;52.084;5.090;2023-02-11T01:51:40;10.83;;;10.53;;
13605;SDS011;6874;52.084;5.090;2023-02-11T01:53:47;9.97;;;9.67;;
13605;SDS011;6874;52.084;5.090;2023-02-11T01:56:34;9.93;;;9.63;;
13605;SDS011;6874;52.084;5.090;2023-02-11T01:59:23;11.50;;;11.20;;
13605;SDS011;6874;52.084;5.090;2023-02-11T02:01:56;10.67;;;10.37;;
13605;SDS011;6874;52.084;5.090;2023-02-11T02:04:26;10.87;;;10.57;;
13605;SDS011;6874;52.084;5.090;2023-02-11T02:06:59;10.60;;;10.30;;
13605;SDS011;6874;52.084;5.090;2023-02-11T02:09:32;10.13;;;9.83;;
13605;SDS011;6874;52.084;5.090;2023-02-11T02:12:04;10.80;;;10.50;;
13605;SDS011;6874;52.084;5.090;2023-02-11T02:14:29;10.80;;;10.50;;
13605;SDS011;6874;52.084;5.090;2023-02-11T02:16:55;12.30;;;11.90;;
13605;SDS011;6874;52.084;5.090;2023-02-11T02:19:26;12.13;;;11.73;;
13605;SDS011;6874;52.084;5.090;2023-02-11T02:24:50;11.50;;;11.10;;
13605;SDS011;6874;52.084;5.090;2023-02-11T02:30:52;9.33;;;9.03;;
13605;SDS011;6874;52.084;5.090;2023-02-11T02:33:43;8.97;;;8.67;;
13605;SDS011;6874;52.084;5.090;2023-02-11T02:36:23;9.43;;;9.13;;
13605;SDS011;6874;52.084;5.090;2023-02-11T02:39:34;10.37;;;10.07;;
13605;SDS011;6874;52.084;5.090;2023-02-11T02:41:55;10.43;;;10.13;;
13605;SDS011;6874;52.084;5.090;2023-02-11T02:44:21;9.83;;;9.53;;
13605;SDS011;6874;52.084;5.090;2023-02-11T02:46:48;11.50;;;11.20;;
13605;SDS011;6874;52.084;5.090;2023-02-11T02:49:14;11.67;;;11.33;;
13605;SDS011;6874;52.084;5.090;2023-02-11T02:54:28;15.17;;;14.67;;
13605;SDS011;6874;52.084;5.090;2023-02-11T03:02:24;11.43;;;11.10;;
13605;SDS011;6874;52.084;5.090;2023-02-11T03:05:05;13.17;;;12.77;;
13605;SDS011;6874;52.084;5.090;2023-02-11T03:12:45;13.10;;;12.70;;
13605;SDS011;6874;52.084;5.090;2023-02-11T03:15:12;13.53;;;13.13;;
13605;SDS011;6874;52.084;5.090;2023-02-11T03:17:39;15.80;;;15.30;;
13605;SDS011;6874;52.084;5.090;2023-02-11T03:20:09;17.60;;;17.07;;
13605;SDS011;6874;52.084;5.090;2023-02-11T03:22:42;17.63;;;17.07;;
13605;SDS011;6874;52.084;5.090;2023-02-11T03:25:33;12.33;;;11.93;;
13605;SDS011;6874;52.084;5.090;2023-02-11T03:28:08;12.50;;;12.10;;
13605;SDS011;6874;52.084;5.090;2023-02-11T03:30:48;11.93;;;11.57;;
13605;SDS011;6874;52.084;5.090;2023-02-11T03:33:28;12.43;;;12.03;;
13605;SDS011;6874;52.084;5.090;2023-02-11T03:36:02;12.30;;;11.90;;
13605;SDS011;6874;52.084;5.090;2023-02-11T03:38:46;12.30;;;11.90;;
13605;SDS011;6874;52.084;5.090;2023-02-11T03:41:14;11.10;;;10.77;;
13605;SDS011;6874;52.084;5.090;2023-02-11T03:43:44;12.10;;;11.70;;
13605;SDS011;6874;52.084;5.090;2023-02-11T03:46:13;12.03;;;11.63;;
13605;SDS011;6874;52.084;5.090;2023-02-11T03:48:43;13.03;;;12.63;;
13605;SDS011;6874;52.084;5.090;2023-02-11T03:51:14;11.57;;;11.17;;
13605;SDS011;6874;52.084;5.090;2023-02-11T03:53:41;12.83;;;12.43;;
13605;SDS011;6874;52.084;5.090;2023-02-11T03:56:10;12.47;;;12.07;;
13605;SDS011;6874;52.084;5.090;2023-02-11T03:58:43;12.70;;;12.30;;
13605;SDS011;6874;52.084;5.090;2023-02-11T04:01:09;13.13;;;12.73;;
13605;SDS011;6874;52.084;5.090;2023-02-11T04:03:35;14.27;;;13.87;;
13605;SDS011;6874;52.084;5.090;2023-02-11T04:06:01;14.20;;;13.77;;
13605;SDS011;6874;52.084;5.090;2023-02-11T04:08:27;14.20;;;13.77;;
13605;SDS011;6874;52.084;5.090;2023-02-11T04:10:52;14.40;;;13.97;;
13605;SDS011;6874;52.084;5.090;2023-02-11T04:13:18;15.13;;;14.67;;
13605;SDS011;6874;52.084;5.090;2023-02-11T04:15:43;15.10;;;14.63;;
13605;SDS011;6874;52.084;5.090;2023-02-11T04:18:09;14.43;;;14.00;;
13605;SDS011;6874;52.084;5.090;2023-02-11T04:20:34;14.47;;;14.03;;
13605;SDS011;6874;52.084;5.090;2023-02-11T04:23:00;15.27;;;14.77;;
13605;SDS011;6874;52.084;5.090;2023-02-11T04:25:25;37.93;;;36.70;;
13605;SDS011;6874;52.084;5.090;2023-02-11T04:27:51;29.97;;;29.00;;
13605;SDS011;6874;52.084;5.090;2023-02-11T04:30:17;26.10;;;25.27;;
13605;SDS011;6874;52.084;5.090;2023-02-11T04:32:42;21.10;;;20.43;;
13605;SDS011;6874;52.084;5.090;2023-02-11T04:35:08;21.23;;;20.57;;
13605;SDS011;6874;52.084;5.090;2023-02-11T04:37:34;19.93;;;19.30;;
13605;SDS011;6874;52.084;5.090;2023-02-11T04:39:59;19.17;;;18.57;;
13605;SDS011;6874;52.084;5.090;2023-02-11T04:42:25;18.57;;;17.97;;
13605;SDS011;6874;52.084;5.090;2023-02-11T04:44:51;18.03;;;17.43;;
13605;SDS011;6874;52.084;5.090;2023-02-11T04:47:16;18.27;;;17.70;;
13605;SDS011;6874;52.084;5.090;2023-02-11T04:49:42;17.50;;;16.97;;
13605;SDS011;6874;52.084;5.090;2023-02-11T04:52:08;15.20;;;14.73;;
13605;SDS011;6874;52.084;5.090;2023-02-11T04:54:34;15.50;;;15.03;;
13605;SDS011;6874;52.084;5.090;2023-02-11T04:56:59;15.40;;;14.90;;
13605;SDS011;6874;52.084;5.090;2023-02-11T04:59:25;13.23;;;12.83;;
13605;SDS011;6874;52.084;5.090;2023-02-11T05:01:51;13.43;;;13.03;;
13605;SDS011;6874;52.084;5.090;2023-02-11T05:04:16;11.90;;;11.53;;
13605;SDS011;6874;52.084;5.090;2023-02-11T05:06:42;12.57;;;12.17;;
13605;SDS011;6874;52.084;5.090;2023-02-11T05:09:09;12.13;;;11.73;;
13605;SDS011;6874;52.084;5.090;2023-02-11T05:11:36;11.40;;;11.07;;
13605;SDS011;6874;52.084;5.090;2023-02-11T05:14:03;10.27;;;9.97;;
13605;SDS011;6874;52.084;5.090;2023-02-11T05:16:29;10.60;;;10.30;;
13605;SDS011;6874;52.084;5.090;2023-02-11T05:18:55;10.50;;;10.20;;
13605;SDS011;6874;52.084;5.090;2023-02-11T05:21:21;10.30;;;10.00;;
13605;SDS011;6874;52.084;5.090;2023-02-11T05:23:46;10.00;;;9.70;;
13605;SDS011;6874;52.084;5.090;2023-02-11T05:26:12;11.53;;;11.23;;
13605;SDS011;6874;52.084;5.090;2023-02-11T05:28:38;11.43;;;11.13;;
13605;SDS011;6874;52.084;5.090;2023-02-11T05:31:05;9.90;;;9.60;;
13605;SDS011;6874;52.084;5.090;2023-02-11T05:33:31;10.10;;;9.80;;
13605;SDS011;6874;52.084;5.090;2023-02-11T05:35:57;12.00;;;11.60;;
13605;SDS011;6874;52.084;5.090;2023-02-11T05:38:24;12.67;;;12.27;;
13605;SDS011;6874;52.084;5.090;2023-02-11T05:40:50;12.03;;;11.63;;
13605;SDS011;6874;52.084;5.090;2023-02-11T05:43:16;12.20;;;11.80;;
13605;SDS011;6874;52.084;5.090;2023-02-11T05:45:41;12.23;;;11.83;;
13605;SDS011;6874;52.084;5.090;2023-02-11T05:48:07;14.03;;;13.63;;
13605;SDS011;6874;52.084;5.090;2023-02-11T05:50:32;11.97;;;11.57;;
13605;SDS011;6874;52.084;5.090;2023-02-11T05:52:58;14.10;;;13.70;;
13605;SDS011;6874;52.084;5.090;2023-02-11T05:55:23;13.90;;;13.50;;
13605;SDS011;6874;52.084;5.090;2023-02-11T05:57:49;12.17;;;11.77;;
13605;SDS011;6874;52.084;5.090;2023-02-11T06:00:14;13.60;;;13.20;;
13605;SDS011;6874;52.084;5.090;2023-02-11T06:02:40;13.33;;;12.93;;
13605;SDS011;6874;52.084;5.090;2023-02-11T06:05:06;15.10;;;14.60;;
13605;SDS011;6874;52.084;5.090;2023-02-11T06:07:32;13.70;;;13.30;;
13605;SDS011;6874;52.084;5.090;2023-02-11T06:09:58;15.10;;;14.60;;
13605;SDS011;6874;52.084;5.090;2023-02-11T06:12:23;15.47;;;14.97;;
13605;SDS011;6874;52.084;5.090;2023-02-11T06:14:49;15.93;;;15.43;;
13605;SDS011;6874;52.084;5.090;2023-02-11T06:17:16;15.70;;;15.20;;
13605;SDS011;6874;52.084;5.090;2023-02-11T06:19:41;15.13;;;14.63;;
13605;SDS011;6874;52.084;5.090;2023-02-11T06:22:07;14.67;;;14.20;;
13605;SDS011;6874;52.084;5.090;2023-02-11T06:24:32;16.33;;;15.83;;
13605;SDS011;6874;52.084;5.090;2023-02-11T06:26:58;14.17;;;13.77;;
13605;SDS011;6874;52.084;5.090;2023-02-11T06:29:23;16.80;;;16.30;;
13605;SDS011;6874;52.084;5.090;2023-02-11T06:31:49;18.17;;;17.57;;
13605;SDS011;6874;52.084;5.090;2023-02-11T06:34:15;16.63;;;16.13;;
13605;SDS011;6874;52.084;5.090;2023-02-11T06:36:40;15.23;;;14.73;;
13605;SDS011;6874;52.084;5.090;2023-02-11T06:39:07;17.90;;;17.30;;
13605;SDS011;6874;52.084;5.090;2023-02-11T06:41:32;15.70;;;15.20;;
13605;SDS011;6874;52.084;5.090;2023-02-11T06:43:58;15.70;;;15.20;;
13605;SDS011;6874;52.084;5.090;2023-02-11T06:46:24;16.70;;;16.20;;
13605;SDS011;6874;52.084;5.090;2023-02-11T06:48:49;16.80;;;16.30;;
13605;SDS011;6874;52.084;5.090;2023-02-11T06:51:16;16.03;;;15.53;;
13605;SDS011;6874;52.084;5.090;2023-02-11T06:53:45;15.77;;;15.27;;
13605;SDS011;6874;52.084;5.090;2023-02-11T06:56:13;19.00;;;18.40;;
13605;SDS011;6874;52.084;5.090;2023-02-11T06:58:42;16.87;;;16.37;;
13605;SDS011;6874;52.084;5.090;2023-02-11T07:01:09;17.33;;;16.80;;
13605;SDS011;6874;52.084;5.090;2023-02-11T07:03:36;18.53;;;17.93;;
13605;SDS011;6874;52.084;5.090;2023-02-11T07:06:06;17.80;;;17.23;;
13605;SDS011;6874;52.084;5.090;2023-02-11T07:08:33;17.80;;;17.23;;
13605;SDS011;6874;52.084;5.090;2023-02-11T07:10:59;17.13;;;16.63;;
13605;SDS011;6874;52.084;5.090;2023-02-11T07:13:25;20.13;;;19.50;;
13605;SDS011;6874;52.084;5.090;2023-02-11T07:15:51;17.80;;;17.23;;
13605;SDS011;6874;52.084;5.090;2023-02-11T07:18:17;18.43;;;17.83;;
13605;SDS011;6874;52.084;5.090;2023-02-11T07:20:43;17.90;;;17.33;;
13605;SDS011;6874;52.084;5.090;2023-02-11T07:23:08;18.20;;;17.63;;
13605;SDS011;6874;52.084;5.090;2023-02-11T07:25:34;19.37;;;18.77;;
13605;SDS011;6874;52.084;5.090;2023-02-11T07:28:00;20.40;;;19.73;;
13605;SDS011;6874;52.084;5.090;2023-02-11T07:30:26;18.17;;;17.60;;
13605;SDS011;6874;52.084;5.090;2023-02-11T07:32:52;18.80;;;18.20;;
13605;SDS011;6874;52.084;5.090;2023-02-11T07:35:17;20.00;;;19.40;;
13605;SDS011;6874;52.084;5.090;2023-02-11T07:37:43;20.80;;;20.13;;
13605;SDS011;6874;52.084;5.090;2023-02-11T07:40:09;22.37;;;21.67;;
13605;SDS011;6874;52.084;5.090;2023-02-11T07:42:35;22.20;;;21.50;;
13605;SDS011;6874;52.084;5.090;2023-02-11T07:45:01;23.07;;;22.33;;
13605;SDS011;6874;52.084;5.090;2023-02-11T07:47:27;20.40;;;19.77;;
13605;SDS011;6874;52.084;5.090;2023-02-11T07:49:52;19.40;;;18.80;;
13605;SDS011;6874;52.084;5.090;2023-02-11T07:52:18;24.27;;;23.50;;
13605;SDS011;6874;52.084;5.090;2023-02-11T07:54:44;22.43;;;21.73;;
13605;SDS011;6874;52.084;5.090;2023-02-11T07:57:09;21.80;;;21.10;;
13605;SDS011;6874;52.084;5.090;2023-02-11T07:59:35;24.27;;;23.50;;
13605;SDS011;6874;52.084;5.090;2023-02-11T08:02:00;27.20;;;26.33;;
13605;SDS011;6874;52.084;5.090;2023-02-11T08:04:26;25.17;;;24.37;;
13605;SDS011;6874;52.084;5.090;2023-02-11T08:06:52;23.77;;;23.00;;
13605;SDS011;6874;52.084;5.090;2023-02-11T08:09:21;24.93;;;24.13;;
13605;SDS011;6874;52.084;5.090;2023-02-11T08:11:46;27.33;;;26.43;;
13605;SDS011;6874;52.084;5.090;2023-02-11T08:14:12;24.90;;;24.10;;
13605;SDS011;6874;52.084;5.090;2023-02-11T08:16:37;26.20;;;25.37;;
13605;SDS011;6874;52.084;5.090;2023-02-11T08:19:04;25.40;;;24.60;;
13605;SDS011;6874;52.084;5.090;2023-02-11T08:21:31;28.57;;;27.67;;
13605;SDS011;6874;52.084;5.090;2023-02-11T08:23:57;31.27;;;30.27;;
13605;SDS011;6874;52.084;5.090;2023-02-11T08:26:26;29.90;;;28.90;;
13605;SDS011;6874;52.084;5.090;2023-02-11T08:28:56;27.97;;;27.07;;
13605;SDS011;6874;52.084;5.090;2023-02-11T08:31:30;30.77;;;29.77;;
13605;SDS011;6874;52.084;5.090;2023-02-11T08:33:59;28.73;;;27.83;;
13605;SDS011;6874;52.084;5.090;2023-02-11T08:36:35;29.90;;;28.90;;
13605;SDS011;6874;52.084;5.090;2023-02-11T08:39:06;29.67;;;28.70;;
13605;SDS011;6874;52.084;5.090;2023-02-11T08:41:36;28.20;;;27.30;;
13605;SDS011;6874;52.084;5.090;2023-02-11T08:44:02;30.37;;;29.37;;
13605;SDS011;6874;52.084;5.090;2023-02-11T08:46:28;30.07;;;29.07;;
13605;SDS011;6874;52.084;5.090;2023-02-11T08:48:53;32.83;;;31.73;;
13605;SDS011;6874;52.084;5.090;2023-02-11T08:51:20;30.00;;;29.00;;
13605;SDS011;6874;52.084;5.090;2023-02-11T08:53:47;30.93;;;29.93;;
13605;SDS011;6874;52.084;5.090;2023-02-11T08:56:14;31.80;;;30.80;;
13605;SDS011;6874;52.084;5.090;2023-02-11T08:58:41;33.40;;;32.30;;
13605;SDS011;6874;52.084;5.090;2023-02-11T09:01:08;34.47;;;33.37;;
13605;SDS011;6874;52.084;5.090;2023-02-11T09:03:34;31.23;;;30.23;;
13605;SDS011;6874;52.084;5.090;2023-02-11T09:06:03;31.73;;;30.73;;
13605;SDS011;6874;52.084;5.090;2023-02-11T09:08:30;30.67;;;29.67;;
13605;SDS011;6874;52.084;5.090;2023-02-11T09:10:57;29.30;;;28.33;;
13605;SDS011;6874;52.084;5.090;2023-02-11T09:13:23;29.67;;;28.67;;
13605;SDS011;6874;52.084;5.090;2023-02-11T09:15:48;31.67;;;30.67;;
13605;SDS011;6874;52.084;5.090;2023-02-11T09:18:14;29.50;;;28.53;;
13605;SDS011;6874;52.084;5.090;2023-02-11T09:20:40;28.30;;;27.37;;
13605;SDS011;6874;52.084;5.090;2023-02-11T09:23:05;25.73;;;24.93;;
13605;SDS011;6874;52.084;5.090;2023-02-11T09:25:31;26.23;;;25.37;;
13605;SDS011;6874;52.084;5.090;2023-02-11T09:27:56;24.30;;;23.53;;
13605;SDS011;6874;52.084;5.090;2023-02-11T09:30:22;25.57;;;24.77;;
13605;SDS011;6874;52.084;5.090;2023-02-11T09:32:48;22.67;;;21.93;;
13605;SDS011;6874;52.084;5.090;2023-02-11T09:35:13;24.73;;;23.93;;
13605;SDS011;6874;52.084;5.090;2023-02-11T09:37:39;23.90;;;23.13;;
13605;SDS011;6874;52.084;5.090;2023-02-11T09:40:05;21.07;;;20.40;;
13605;SDS011;6874;52.084;5.090;2023-02-11T09:45:29;20.63;;;20.00;;
13605;SDS011;6874;52.084;5.090;2023-02-11T09:48:00;21.37;;;20.70;;
13605;SDS011;6874;52.084;5.090;2023-02-11T09:50:31;20.87;;;20.23;;
13605;SDS011;6874;52.084;5.090;2023-02-11T09:53:01;22.03;;;21.33;;
13605;SDS011;6874;52.084;5.090;2023-02-11T09:55:34;24.87;;;24.07;;
13605;SDS011;6874;52.084;5.090;2023-02-11T09:58:06;24.87;;;24.07;;
13605;SDS011;6874;52.084;5.090;2023-02-11T10:00:44;25.63;;;24.83;;
13605;SDS011;6874;52.084;5.090;2023-02-11T10:06:24;27.33;;;26.43;;
13605;SDS011;6874;52.084;5.090;2023-02-11T10:09:09;28.27;;;27.37;;
13605;SDS011;6874;52.084;5.090;2023-02-11T10:12:13;29.33;;;28.40;;
13605;SDS011;6874;52.084;5.090;2023-02-11T10:21:12;31.87;;;30.83;;
13605;SDS011;6874;52.084;5.090;2023-02-11T10:23:40;37.07;;;35.87;;
13605;SDS011;6874;52.084;5.090;2023-02-11T10:26:11;36.97;;;35.77;;
13605;SDS011;6874;52.084;5.090;2023-02-11T10:28:40;41.13;;;39.77;;
13605;SDS011;6874;52.084;5.090;2023-02-11T10:31:11;40.93;;;39.57;;
13605;SDS011;6874;52.084;5.090;2023-02-11T10:34:02;40.67;;;39.33;;
13605;SDS011;6874;52.084;5.090;2023-02-11T10:36:30;41.17;;;39.77;;
13605;SDS011;6874;52.084;5.090;2023-02-11T10:38:59;41.00;;;39.60;;
13605;SDS011;6874;52.084;5.090;2023-02-11T10:41:27;46.10;;;44.53;;
13605;SDS011;6874;52.084;5.090;2023-02-11T10:43:58;42.57;;;41.10;;
13605;SDS011;6874;52.084;5.090;2023-02-11T10:46:28;43.77;;;42.30;;
13605;SDS011;6874;52.084;5.090;2023-02-11T10:48:57;47.80;;;46.17;;
13605;SDS011;6874;52.084;5.090;2023-02-11T10:51:23;49.07;;;47.40;;
13605;SDS011;6874;52.084;5.090;2023-02-11T10:56:30;47.17;;;45.57;;
13605;SDS011;6874;52.084;5.090;2023-02-11T10:59:06;48.17;;;46.53;;
13605;SDS011;6874;52.084;5.090;2023-02-11T11:01:48;42.77;;;41.37;;
13605;SDS011;6874;52.084;5.090;2023-02-11T11:09:49;33.20;;;32.10;;
13605;SDS011;6874;52.084;5.090;2023-02-11T11:18:38;40.57;;;39.23;;
13605;SDS011;6874;52.084;5.090;2023-02-11T11:20:43;44.17;;;42.70;;
13605;SDS011;6874;52.084;5.090;2023-02-11T11:23:21;44.63;;;43.13;;
13605;SDS011;6874;52.084;5.090;2023-02-11T11:28:37;40.77;;;39.40;;
13605;SDS011;6874;52.084;5.090;2023-02-11T11:31:14;45.63;;;44.10;;
13605;SDS011;6874;52.084;5.090;2023-02-11T11:33:44;39.60;;;38.27;;
13605;SDS011;6874;52.084;5.090;2023-02-11T11:36:15;43.03;;;41.57;;
13605;SDS011;6874;52.084;5.090;2023-02-11T11:38:49;39.07;;;37.70;;
13605;SDS011;6874;52.084;5.090;2023-02-11T11:43:58;36.93;;;35.70;;
13605;SDS011;6874;52.084;5.090;2023-02-11T11:46:27;39.27;;;37.93;;
13605;SDS011;6874;52.084;5.090;2023-02-11T11:48:57;39.17;;;37.83;;
13605;SDS011;6874;52.084;5.090;2023-02-11T11:51:57;35.90;;;34.67;;
13605;SDS011;6874;52.084;5.090;2023-02-11T11:54:39;36.90;;;35.63;;
13605;SDS011;6874;52.084;5.090;2023-02-11T11:57:10;41.27;;;39.83;;
13605;SDS011;6874;52.084;5.090;2023-02-11T11:59:40;41.17;;;39.73;;
13605;SDS011;6874;52.084;5.090;2023-02-11T12:10:28;43.77;;;42.30;;
13605;SDS011;6874;52.084;5.090;2023-02-11T12:19:26;51.27;;;49.57;;
13605;SDS011;6874;52.084;5.090;2023-02-11T12:36:01;49.00;;;47.33;;
13605;SDS011;6874;52.084;5.090;2023-02-11T12:44:35;48.87;;;47.20;;
13605;SDS011;6874;52.084;5.090;2023-02-11T12:47:27;54.30;;;52.47;;
13605;SDS011;6874;52.084;5.090;2023-02-11T12:53:38;61.23;;;59.17;;
13605;SDS011;6874;52.084;5.090;2023-02-11T12:56:23;62.27;;;60.17;;
13605;SDS011;6874;52.084;5.090;2023-02-11T12:58:58;61.83;;;59.73;;
13605;SDS011;6874;52.084;5.090;2023-02-11T13:01:26;55.70;;;53.80;;
13605;SDS011;6874;52.084;5.090;2023-02-11T13:04:04;55.30;;;53.40;;
13605;SDS011;6874;52.084;5.090;2023-02-11T13:06:33;55.90;;;54.03;;
13605;SDS011;6874;52.084;5.090;2023-02-11T13:09:04;56.87;;;54.93;;
13605;SDS011;6874;52.084;5.090;2023-02-11T13:11:46;62.37;;;60.27;;
13605;SDS011;6874;52.084;5.090;2023-02-11T13:14:36;56.97;;;55.07;;
13605;SDS011;6874;52.084;5.090;2023-02-11T13:17:07;60.63;;;58.63;;
13605;SDS011;6874;52.084;5.090;2023-02-11T13:19:43;57.07;;;55.13;;
13605;SDS011;6874;52.084;5.090;2023-02-11T13:22:17;53.03;;;51.27;;
13605;SDS011;6874;52.084;5.090;2023-02-11T13:30:29;67.00;;;64.80;;
13605;SDS011;6874;52.084;5.090;2023-02-11T13:35:28;58.30;;;56.33;;
13605;SDS011;6874;52.084;5.090;2023-02-11T13:38:24;62.40;;;60.33;;
13605;SDS011;6874;52.084;5.090;2023-02-11T13:43:58;62.63;;;60.57;;
13605;SDS011;6874;52.084;5.090;2023-02-11T13:46:25;66.03;;;63.87;;
13605;SDS011;6874;52.084;5.090;2023-02-11T13:48:53;60.27;;;58.27;;
13605;SDS011;6874;52.084;5.090;2023-02-11T13:51:32;60.53;;;58.47;;
13605;SDS011;6874;52.084;5.090;2023-02-11T13:53:58;65.07;;;62.87;;
13605;SDS011;6874;52.084;5.090;2023-02-11T13:58:56;66.77;;;64.50;;
13605;SDS011;6874;52.084;5.090;2023-02-11T14:05:01;67.77;;;65.50;;
13605;SDS011;6874;52.084;5.090;2023-02-11T14:08:14;71.10;;;68.73;;
13605;SDS011;6874;52.084;5.090;2023-02-11T14:11:40;65.03;;;62.87;;
13605;SDS011;6874;52.084;5.090;2023-02-11T14:17:16;65.30;;;63.10;;
13605;SDS011;6874;52.084;5.090;2023-02-11T14:19:36;62.60;;;60.50;;
13605;SDS011;6874;52.084;5.090;2023-02-11T14:22:14;58.83;;;56.83;;
13605;SDS011;6874;52.084;5.090;2023-02-11T14:24:50;62.43;;;60.30;;
13605;SDS011;6874;52.084;5.090;2023-02-11T14:27:26;61.57;;;59.53;;
13605;SDS011;6874;52.084;5.090;2023-02-11T14:33:17;60.50;;;58.47;;
13605;SDS011;6874;52.084;5.090;2023-02-11T14:38:28;58.20;;;56.23;;
13605;SDS011;6874;52.084;5.090;2023-02-11T14:43:45;60.33;;;58.33;;
13605;SDS011;6874;52.084;5.090;2023-02-11T14:46:14;56.30;;;54.40;;
13605;SDS011;6874;52.084;5.090;2023-02-11T14:48:43;62.93;;;60.83;;
13605;SDS011;6874;52.084;5.090;2023-02-11T14:51:25;64.60;;;62.47;;
13605;SDS011;6874;52.084;5.090;2023-02-11T14:54:14;66.63;;;64.40;;
13605;SDS011;6874;52.084;5.090;2023-02-11T14:56:43;66.37;;;64.17;;
13605;SDS011;6874;52.084;5.090;2023-02-11T14:59:21;66.73;;;64.53;;
13605;SDS011;6874;52.084;5.090;2023-02-11T15:01:50;66.60;;;64.40;;
13605;SDS011;6874;52.084;5.090;2023-02-11T15:04:22;69.57;;;67.23;;
13605;SDS011;6874;52.084;5.090;2023-02-11T15:07:03;65.80;;;63.60;;
13605;SDS011;6874;52.084;5.090;2023-02-11T15:12:18;67.67;;;65.43;;
13605;SDS011;6874;52.084;5.090;2023-02-11T15:14:49;75.10;;;72.60;;
13605;SDS011;6874;52.084;5.090;2023-02-11T15:17:18;78.50;;;75.87;;
13605;SDS011;6874;52.084;5.090;2023-02-11T15:19:48;78.50;;;75.90;;
13605;SDS011;6874;52.084;5.090;2023-02-11T15:22:24;91.07;;;88.00;;
13605;SDS011;6874;52.084;5.090;2023-02-11T15:24:59;85.43;;;82.57;;
13605;SDS011;6874;52.084;5.090;2023-02-11T15:27:45;87.37;;;84.47;;
13605;SDS011;6874;52.084;5.090;2023-02-11T15:32:48;88.07;;;85.07;;
13605;SDS011;6874;52.084;5.090;2023-02-11T15:35:23;97.60;;;94.30;;
13605;SDS011;6874;52.084;5.090;2023-02-11T15:37:53;98.57;;;95.17;;
13605;SDS011;6874;52.084;5.090;2023-02-11T15:40:25;105.10;;;101.47;;
13605;SDS011;6874;52.084;5.090;2023-02-11T15:45:30;100.93;;;97.47;;
13605;SDS011;6874;52.084;5.090;2023-02-11T15:48:07;111.47;;;107.70;;
13605;SDS011;6874;52.084;5.090;2023-02-11T15:50:37;107.60;;;103.97;;
13605;SDS011;6874;52.084;5.090;2023-02-11T15:53:18;108.27;;;104.57;;
13605;SDS011;6874;52.084;5.090;2023-02-11T15:55:45;107.90;;;104.20;;
13605;SDS011;6874;52.084;5.090;2023-02-11T15:58:10;115.47;;;111.47;;
13605;SDS011;6874;52.084;5.090;2023-02-11T16:00:37;115.03;;;111.17;;
13605;SDS011;6874;52.084;5.090;2023-02-11T16:03:25;121.20;;;117.07;;
13605;SDS011;6874;52.084;5.090;2023-02-11T16:05:56;114.63;;;110.73;;
13605;SDS011;6874;52.084;5.090;2023-02-11T16:08:44;110.07;;;106.37;;
13605;SDS011;6874;52.084;5.090;2023-02-11T16:16:47;111.80;;;108.03;;
13605;SDS011;6874;52.084;5.090;2023-02-11T16:19:17;113.50;;;109.60;;
13605;SDS011;6874;52.084;5.090;2023-02-11T16:21:43;111.10;;;107.27;;
13605;SDS011;6874;52.084;5.090;2023-02-11T16:24:16;122.60;;;118.40;;
13605;SDS011;6874;52.084;5.090;2023-02-11T16:26:46;119.47;;;115.37;;
13605;SDS011;6874;52.084;5.090;2023-02-11T16:29:15;126.13;;;121.77;;
13605;SDS011;6874;52.084;5.090;2023-02-11T16:31:47;134.77;;;130.07;;
13605;SDS011;6874;52.084;5.090;2023-02-11T16:36:45;123.43;;;119.13;;
13605;SDS011;6874;52.084;5.090;2023-02-11T16:39:11;130.07;;;125.60;;
13605;SDS011;6874;52.084;5.090;2023-02-11T16:41:41;126.67;;;122.30;;
13605;SDS011;6874;52.084;5.090;2023-02-11T16:44:08;136.30;;;131.60;;
13605;SDS011;6874;52.084;5.090;2023-02-11T16:46:33;131.90;;;127.30;;
13605;SDS011;6874;52.084;5.090;2023-02-11T16:49:09;128.50;;;124.00;;
13605;SDS011;6874;52.084;5.090;2023-02-11T16:51:41;129.77;;;125.27;;
13605;SDS011;6874;52.084;5.090;2023-02-11T16:54:12;131.93;;;127.37;;
13605;SDS011;6874;52.084;5.090;2023-02-11T16:56:39;129.50;;;125.00;;
13605;SDS011;6874;52.084;5.090;2023-02-11T16:59:04;135.30;;;130.57;;
13605;SDS011;6874;52.084;5.090;2023-02-11T17:01:30;175.20;;;167.30;;
13605;SDS011;6874;52.084;5.090;2023-02-11T17:03:58;142.17;;;137.17;;
13605;SDS011;6874;52.084;5.090;2023-02-11T17:06:24;138.10;;;133.20;;